sensor_id;sensor_type;location;lat;lon;timestamp;temperature;humidity
65985;HTU21D;52748;51.112;5.880;2023-07-24T00:01:33;24.94;56.95
65985;HTU21D;52748;51.112;5.880;2023-07-24T00:03:59;24.95;57.00
65985;HTU21D;52748;51.112;5.880;2023-07-24T00:06:25;24.95;56.93
65985;HTU21D;52748;51.112;5.880;2023-07-24T00:08:51;24.95;56.98
65985;HTU21D;52748;51.112;5.880;2023-07-24T00:11:17;24.95;56.96
65985;HTU21D;52748;51.112;5.880;2023-07-24T00:13:42;24.95;56.95
65985;HTU21D;52748;51.112;5.880;2023-07-24T00:16:09;24.95;56.99
65985;HTU21D;52748;51.112;5.880;2023-07-24T00:18:34;24.94;57.00
65985;HTU21D;52748;51.112;5.880;2023-07-24T00:21:00;24.95;56.98
65985;HTU21D;52748;51.112;5.880;2023-07-24T00:23:26;24.93;56.97
65985;HTU21D;52748;51.112;5.880;2023-07-24T00:25:52;24.94;56.98
65985;HTU21D;52748;51.112;5.880;2023-07-24T00:28:18;24.94;56.93
65985;HTU21D;52748;51.112;5.880;2023-07-24T00:30:44;24.94;56.88
65985;HTU21D;52748;51.112;5.880;2023-07-24T00:33:10;24.94;56.96
65985;HTU21D;52748;51.112;5.880;2023-07-24T00:35:35;24.94;56.96
65985;HTU21D;52748;51.112;5.880;2023-07-24T00:38:01;24.93;57.02
65985;HTU21D;52748;51.112;5.880;2023-07-24T00:40:27;24.94;57.01
65985;HTU21D;52748;51.112;5.880;2023-07-24T00:42:53;24.92;56.99
65985;HTU21D;52748;51.112;5.880;2023-07-24T00:45:19;24.92;56.97
65985;HTU21D;52748;51.112;5.880;2023-07-24T00:47:47;24.93;57.03
65985;HTU21D;52748;51.112;5.880;2023-07-24T00:50:13;24.94;57.06
65985;HTU21D;52748;51.112;5.880;2023-07-24T00:52:40;24.93;57.06
65985;HTU21D;52748;51.112;5.880;2023-07-24T00:55:07;24.92;57.10
65985;HTU21D;52748;51.112;5.880;2023-07-24T00:57:34;24.92;57.10
65985;HTU21D;52748;51.112;5.880;2023-07-24T01:00:00;24.91;57.13
65985;HTU21D;52748;51.112;5.880;2023-07-24T01:02:27;24.92;57.13
65985;HTU21D;52748;51.112;5.880;2023-07-24T01:04:53;24.92;57.10
65985;HTU21D;52748;51.112;5.880;2023-07-24T01:07:20;24.92;57.07
65985;HTU21D;52748;51.112;5.880;2023-07-24T01:09:46;24.91;57.07
65985;HTU21D;52748;51.112;5.880;2023-07-24T01:12:26;24.91;57.13
65985;HTU21D;52748;51.112;5.880;2023-07-24T01:15:09;24.91;57.13
65985;HTU21D;52748;51.112;5.880;2023-07-24T01:17:45;24.91;57.13
65985;HTU21D;52748;51.112;5.880;2023-07-24T01:20:17;24.91;57.19
65985;HTU21D;52748;51.112;5.880;2023-07-24T01:25:57;24.91;57.26
65985;HTU21D;52748;51.112;5.880;2023-07-24T01:28:27;24.90;57.19
65985;HTU21D;52748;51.112;5.880;2023-07-24T01:30:53;24.91;57.17
65985;HTU21D;52748;51.112;5.880;2023-07-24T01:33:22;24.91;57.15
65985;HTU21D;52748;51.112;5.880;2023-07-24T01:35:54;24.92;57.10
65985;HTU21D;52748;51.112;5.880;2023-07-24T01:38:21;24.91;57.10
65985;HTU21D;52748;51.112;5.880;2023-07-24T01:40:49;24.90;57.11
65985;HTU21D;52748;51.112;5.880;2023-07-24T01:43:15;24.90;57.16
65985;HTU21D;52748;51.112;5.880;2023-07-24T01:45:41;24.91;57.15
65985;HTU21D;52748;51.112;5.880;2023-07-24T01:48:06;24.91;57.13
65985;HTU21D;52748;51.112;5.880;2023-07-24T01:50:32;24.92;57.22
65985;HTU21D;52748;51.112;5.880;2023-07-24T01:52:58;24.91;57.20
65985;HTU21D;52748;51.112;5.880;2023-07-24T01:55:24;24.91;57.14
65985;HTU21D;52748;51.112;5.880;2023-07-24T01:57:50;24.90;57.11
65985;HTU21D;52748;51.112;5.880;2023-07-24T02:00:16;24.91;57.11
65985;HTU21D;52748;51.112;5.880;2023-07-24T02:02:42;24.91;57.12
65985;HTU21D;52748;51.112;5.880;2023-07-24T02:05:08;24.90;57.18
65985;HTU21D;52748;51.112;5.880;2023-07-24T02:07:34;24.90;57.15
65985;HTU21D;52748;51.112;5.880;2023-07-24T02:10:00;24.91;57.15
65985;HTU21D;52748;51.112;5.880;2023-07-24T02:12:26;24.90;57.13
65985;HTU21D;52748;51.112;5.880;2023-07-24T02:14:51;24.90;57.12
65985;HTU21D;52748;51.112;5.880;2023-07-24T02:17:18;24.90;57.16
65985;HTU21D;52748;51.112;5.880;2023-07-24T02:19:44;24.90;57.15
65985;HTU21D;52748;51.112;5.880;2023-07-24T02:22:10;24.90;57.11
65985;HTU21D;52748;51.112;5.880;2023-07-24T02:24:36;24.90;57.13
65985;HTU21D;52748;51.112;5.880;2023-07-24T02:27:02;24.90;57.17
65985;HTU21D;52748;51.112;5.880;2023-07-24T02:29:31;24.92;57.07
65985;HTU21D;52748;51.112;5.880;2023-07-24T02:31:58;24.90;57.12
65985;HTU21D;52748;51.112;5.880;2023-07-24T02:34:24;24.91;57.16
65985;HTU21D;52748;51.112;5.880;2023-07-24T02:36:52;24.89;57.22
65985;HTU21D;52748;51.112;5.880;2023-07-24T02:39:19;24.90;57.19
65985;HTU21D;52748;51.112;5.880;2023-07-24T02:41:47;24.90;57.23
65985;HTU21D;52748;51.112;5.880;2023-07-24T02:44:13;24.90;57.29
65985;HTU21D;52748;51.112;5.880;2023-07-24T02:46:40;24.91;57.30
65985;HTU21D;52748;51.112;5.880;2023-07-24T02:49:05;24.90;57.34
65985;HTU21D;52748;51.112;5.880;2023-07-24T02:51:31;24.89;57.34
65985;HTU21D;52748;51.112;5.880;2023-07-24T02:53:57;24.89;57.30
65985;HTU21D;52748;51.112;5.880;2023-07-24T02:56:23;24.89;57.30
65985;HTU21D;52748;51.112;5.880;2023-07-24T02:58:49;24.91;57.35
65985;HTU21D;52748;51.112;5.880;2023-07-24T03:01:15;24.90;57.41
65985;HTU21D;52748;51.112;5.880;2023-07-24T03:03:41;24.90;57.37
65985;HTU21D;52748;51.112;5.880;2023-07-24T03:06:07;24.90;57.37
65985;HTU21D;52748;51.112;5.880;2023-07-24T03:08:33;24.90;57.31
65985;HTU21D;52748;51.112;5.880;2023-07-24T03:11:00;24.89;57.29
65985;HTU21D;52748;51.112;5.880;2023-07-24T03:13:27;24.90;57.28
65985;HTU21D;52748;51.112;5.880;2023-07-24T03:15:55;24.89;57.26
65985;HTU21D;52748;51.112;5.880;2023-07-24T03:18:21;24.90;57.28
65985;HTU21D;52748;51.112;5.880;2023-07-24T03:20:47;24.90;57.31
65985;HTU21D;52748;51.112;5.880;2023-07-24T03:23:13;24.89;57.29
65985;HTU21D;52748;51.112;5.880;2023-07-24T03:25:39;24.89;57.25
65985;HTU21D;52748;51.112;5.880;2023-07-24T03:28:05;24.90;57.23
65985;HTU21D;52748;51.112;5.880;2023-07-24T03:30:31;24.90;57.24
65985;HTU21D;52748;51.112;5.880;2023-07-24T03:32:57;24.90;57.22
65985;HTU21D;52748;51.112;5.880;2023-07-24T03:35:23;24.90;57.17
65985;HTU21D;52748;51.112;5.880;2023-07-24T03:37:49;24.90;57.25
65985;HTU21D;52748;51.112;5.880;2023-07-24T03:40:15;24.89;57.38
65985;HTU21D;52748;51.112;5.880;2023-07-24T03:42:41;24.88;57.42
65985;HTU21D;52748;51.112;5.880;2023-07-24T03:45:07;24.89;57.49
65985;HTU21D;52748;51.112;5.880;2023-07-24T03:47:33;24.89;57.49
65985;HTU21D;52748;51.112;5.880;2023-07-24T03:49:59;24.88;57.44
65985;HTU21D;52748;51.112;5.880;2023-07-24T03:52:26;24.89;57.42
65985;HTU21D;52748;51.112;5.880;2023-07-24T03:54:52;24.88;57.43
65985;HTU21D;52748;51.112;5.880;2023-07-24T03:57:18;24.88;57.44
65985;HTU21D;52748;51.112;5.880;2023-07-24T03:59:44;24.89;57.38
65985;HTU21D;52748;51.112;5.880;2023-07-24T04:02:10;24.89;57.44
65985;HTU21D;52748;51.112;5.880;2023-07-24T04:04:37;24.90;57.47
65985;HTU21D;52748;51.112;5.880;2023-07-24T04:07:03;24.90;57.45
65985;HTU21D;52748;51.112;5.880;2023-07-24T04:09:29;24.89;57.32
65985;HTU21D;52748;51.112;5.880;2023-07-24T04:11:55;24.88;57.32
65985;HTU21D;52748;51.112;5.880;2023-07-24T04:14:21;24.88;57.36
65985;HTU21D;52748;51.112;5.880;2023-07-24T04:16:47;24.89;57.47
65985;HTU21D;52748;51.112;5.880;2023-07-24T04:19:12;24.88;57.41
65985;HTU21D;52748;51.112;5.880;2023-07-24T04:21:38;24.89;57.36
65985;HTU21D;52748;51.112;5.880;2023-07-24T04:24:04;24.90;57.37
65985;HTU21D;52748;51.112;5.880;2023-07-24T04:26:30;24.90;57.37
65985;HTU21D;52748;51.112;5.880;2023-07-24T04:28:56;24.93;57.26
65985;HTU21D;52748;51.112;5.880;2023-07-24T04:31:22;24.91;57.28
65985;HTU21D;52748;51.112;5.880;2023-07-24T04:33:47;24.89;57.29
65985;HTU21D;52748;51.112;5.880;2023-07-24T04:36:13;24.90;57.30
65985;HTU21D;52748;51.112;5.880;2023-07-24T04:38:39;24.90;57.27
65985;HTU21D;52748;51.112;5.880;2023-07-24T04:41:05;24.89;57.25
65985;HTU21D;52748;51.112;5.880;2023-07-24T04:43:30;24.89;57.29
65985;HTU21D;52748;51.112;5.880;2023-07-24T04:45:56;24.89;57.34
65985;HTU21D;52748;51.112;5.880;2023-07-24T04:48:22;24.88;57.39
65985;HTU21D;52748;51.112;5.880;2023-07-24T04:50:54;24.87;57.38
65985;HTU21D;52748;51.112;5.880;2023-07-24T04:53:21;24.88;57.35
65985;HTU21D;52748;51.112;5.880;2023-07-24T04:55:47;24.88;57.36
65985;HTU21D;52748;51.112;5.880;2023-07-24T04:58:12;24.87;57.40
65985;HTU21D;52748;51.112;5.880;2023-07-24T05:00:38;24.87;57.49
65985;HTU21D;52748;51.112;5.880;2023-07-24T05:03:04;24.86;57.53
65985;HTU21D;52748;51.112;5.880;2023-07-24T05:05:30;24.85;57.58
65985;HTU21D;52748;51.112;5.880;2023-07-24T05:07:57;24.86;57.56
65985;HTU21D;52748;51.112;5.880;2023-07-24T05:10:23;24.86;57.55
65985;HTU21D;52748;51.112;5.880;2023-07-24T05:12:49;24.86;57.51
65985;HTU21D;52748;51.112;5.880;2023-07-24T05:15:14;24.86;57.50
65985;HTU21D;52748;51.112;5.880;2023-07-24T05:17:45;24.86;57.54
65985;HTU21D;52748;51.112;5.880;2023-07-24T05:20:11;24.85;57.48
65985;HTU21D;52748;51.112;5.880;2023-07-24T05:22:37;24.85;57.46
65985;HTU21D;52748;51.112;5.880;2023-07-24T05:25:03;24.85;57.44
65985;HTU21D;52748;51.112;5.880;2023-07-24T05:27:29;24.85;57.47
65985;HTU21D;52748;51.112;5.880;2023-07-24T05:29:55;24.86;57.48
65985;HTU21D;52748;51.112;5.880;2023-07-24T05:32:21;24.86;57.56
65985;HTU21D;52748;51.112;5.880;2023-07-24T05:34:47;24.85;57.58
65985;HTU21D;52748;51.112;5.880;2023-07-24T05:37:13;24.85;57.51
65985;HTU21D;52748;51.112;5.880;2023-07-24T05:39:38;24.86;57.54
65985;HTU21D;52748;51.112;5.880;2023-07-24T05:42:04;24.85;57.57
65985;HTU21D;52748;51.112;5.880;2023-07-24T05:44:30;24.86;57.61
65985;HTU21D;52748;51.112;5.880;2023-07-24T05:46:58;24.85;57.58
65985;HTU21D;52748;51.112;5.880;2023-07-24T05:49:24;24.85;57.60
65985;HTU21D;52748;51.112;5.880;2023-07-24T05:51:53;24.84;57.57
65985;HTU21D;52748;51.112;5.880;2023-07-24T05:54:19;24.85;57.52
65985;HTU21D;52748;51.112;5.880;2023-07-24T05:56:45;24.84;57.50
65985;HTU21D;52748;51.112;5.880;2023-07-24T05:59:11;24.84;57.51
65985;HTU21D;52748;51.112;5.880;2023-07-24T06:01:37;24.85;57.48
65985;HTU21D;52748;51.112;5.880;2023-07-24T06:04:03;24.85;57.52
65985;HTU21D;52748;51.112;5.880;2023-07-24T06:06:28;24.84;57.55
65985;HTU21D;52748;51.112;5.880;2023-07-24T06:08:54;24.84;57.58
65985;HTU21D;52748;51.112;5.880;2023-07-24T06:11:20;24.85;57.56
65985;HTU21D;52748;51.112;5.880;2023-07-24T06:13:46;24.84;57.54
65985;HTU21D;52748;51.112;5.880;2023-07-24T06:16:12;24.85;57.61
65985;HTU21D;52748;51.112;5.880;2023-07-24T06:18:39;24.85;57.58
65985;HTU21D;52748;51.112;5.880;2023-07-24T06:21:05;24.84;57.61
65985;HTU21D;52748;51.112;5.880;2023-07-24T06:23:31;24.84;57.68
65985;HTU21D;52748;51.112;5.880;2023-07-24T06:25:56;24.83;57.64
65985;HTU21D;52748;51.112;5.880;2023-07-24T06:28:22;24.84;57.68
65985;HTU21D;52748;51.112;5.880;2023-07-24T06:30:48;24.85;57.55
65985;HTU21D;52748;51.112;5.880;2023-07-24T06:33:17;24.84;57.56
65985;HTU21D;52748;51.112;5.880;2023-07-24T06:35:43;24.84;57.57
65985;HTU21D;52748;51.112;5.880;2023-07-24T06:38:09;24.84;57.62
65985;HTU21D;52748;51.112;5.880;2023-07-24T06:40:35;24.84;57.68
65985;HTU21D;52748;51.112;5.880;2023-07-24T06:43:00;24.83;57.69
65985;HTU21D;52748;51.112;5.880;2023-07-24T06:45:26;24.84;57.71
65985;HTU21D;52748;51.112;5.880;2023-07-24T06:47:52;24.83;57.70
65985;HTU21D;52748;51.112;5.880;2023-07-24T06:50:18;24.83;57.69
65985;HTU21D;52748;51.112;5.880;2023-07-24T06:52:44;24.84;57.67
65985;HTU21D;52748;51.112;5.880;2023-07-24T06:55:10;24.84;57.64
65985;HTU21D;52748;51.112;5.880;2023-07-24T06:57:35;24.83;57.64
65985;HTU21D;52748;51.112;5.880;2023-07-24T07:00:01;24.84;57.66
65985;HTU21D;52748;51.112;5.880;2023-07-24T07:02:27;24.83;57.67
65985;HTU21D;52748;51.112;5.880;2023-07-24T07:04:54;24.83;57.65
65985;HTU21D;52748;51.112;5.880;2023-07-24T07:07:21;24.83;57.63
65985;HTU21D;52748;51.112;5.880;2023-07-24T07:09:46;24.83;57.60
65985;HTU21D;52748;51.112;5.880;2023-07-24T07:12:12;24.84;57.64
65985;HTU21D;52748;51.112;5.880;2023-07-24T07:14:38;24.83;57.67
65985;HTU21D;52748;51.112;5.880;2023-07-24T07:17:04;24.83;57.69
65985;HTU21D;52748;51.112;5.880;2023-07-24T07:19:29;24.83;57.64
65985;HTU21D;52748;51.112;5.880;2023-07-24T07:21:55;24.82;57.59
65985;HTU21D;52748;51.112;5.880;2023-07-24T07:24:21;24.83;57.59
65985;HTU21D;52748;51.112;5.880;2023-07-24T07:26:47;24.83;57.60
65985;HTU21D;52748;51.112;5.880;2023-07-24T07:29:13;24.83;57.62
65985;HTU21D;52748;51.112;5.880;2023-07-24T07:31:38;24.83;57.61
65985;HTU21D;52748;51.112;5.880;2023-07-24T07:34:04;24.83;57.61
65985;HTU21D;52748;51.112;5.880;2023-07-24T07:36:30;24.84;57.61
65985;HTU21D;52748;51.112;5.880;2023-07-24T07:38:56;24.83;57.56
65985;HTU21D;52748;51.112;5.880;2023-07-24T07:41:21;24.84;57.60
65985;HTU21D;52748;51.112;5.880;2023-07-24T07:43:47;24.84;57.61
65985;HTU21D;52748;51.112;5.880;2023-07-24T07:46:13;24.83;57.53
65985;HTU21D;52748;51.112;5.880;2023-07-24T07:48:39;24.84;57.52
65985;HTU21D;52748;51.112;5.880;2023-07-24T07:51:05;24.84;57.56
65985;HTU21D;52748;51.112;5.880;2023-07-24T07:53:31;24.84;57.57
65985;HTU21D;52748;51.112;5.880;2023-07-24T07:55:58;24.83;57.61
65985;HTU21D;52748;51.112;5.880;2023-07-24T07:58:25;24.83;57.55
65985;HTU21D;52748;51.112;5.880;2023-07-24T08:00:51;24.82;57.77
65985;HTU21D;52748;51.112;5.880;2023-07-24T08:03:17;24.82;58.09
65985;HTU21D;52748;51.112;5.880;2023-07-24T08:05:43;24.82;58.41
65985;HTU21D;52748;51.112;5.880;2023-07-24T08:08:09;24.84;62.15
65985;HTU21D;52748;51.112;5.880;2023-07-24T08:10:37;24.79;70.70
65985;HTU21D;52748;51.112;5.880;2023-07-24T08:13:03;24.73;70.96
65985;HTU21D;52748;51.112;5.880;2023-07-24T08:15:34;24.72;68.52
65985;HTU21D;52748;51.112;5.880;2023-07-24T08:17:59;24.71;65.73
65985;HTU21D;52748;51.112;5.880;2023-07-24T08:20:25;24.72;63.92
65985;HTU21D;52748;51.112;5.880;2023-07-24T08:22:51;24.73;62.89
65985;HTU21D;52748;51.112;5.880;2023-07-24T08:25:17;24.73;62.14
65985;HTU21D;52748;51.112;5.880;2023-07-24T08:27:43;24.74;61.59
65985;HTU21D;52748;51.112;5.880;2023-07-24T08:30:09;24.77;61.11
65985;HTU21D;52748;51.112;5.880;2023-07-24T08:32:35;24.77;60.86
65985;HTU21D;52748;51.112;5.880;2023-07-24T08:35:01;24.77;60.61
65985;HTU21D;52748;51.112;5.880;2023-07-24T08:37:27;24.77;60.46
65985;HTU21D;52748;51.112;5.880;2023-07-24T08:39:52;24.79;60.28
65985;HTU21D;52748;51.112;5.880;2023-07-24T08:42:18;24.79;60.13
65985;HTU21D;52748;51.112;5.880;2023-07-24T08:44:46;24.80;60.00
65985;HTU21D;52748;51.112;5.880;2023-07-24T08:47:13;24.80;59.93
65985;HTU21D;52748;51.112;5.880;2023-07-24T08:49:42;24.82;59.85
65985;HTU21D;52748;51.112;5.880;2023-07-24T08:52:10;24.82;59.81
65985;HTU21D;52748;51.112;5.880;2023-07-24T08:54:36;24.83;59.77
65985;HTU21D;52748;51.112;5.880;2023-07-24T08:57:06;24.82;59.68
65985;HTU21D;52748;51.112;5.880;2023-07-24T08:59:32;24.82;59.62
65985;HTU21D;52748;51.112;5.880;2023-07-24T09:01:58;24.83;59.54
65985;HTU21D;52748;51.112;5.880;2023-07-24T09:04:24;24.83;59.50
65985;HTU21D;52748;51.112;5.880;2023-07-24T09:06:51;24.83;59.42
65985;HTU21D;52748;51.112;5.880;2023-07-24T09:09:17;24.84;59.38
65985;HTU21D;52748;51.112;5.880;2023-07-24T09:11:51;24.83;59.34
65985;HTU21D;52748;51.112;5.880;2023-07-24T09:14:25;24.83;59.32
65985;HTU21D;52748;51.112;5.880;2023-07-24T09:17:03;24.85;59.46
65985;HTU21D;52748;51.112;5.880;2023-07-24T09:19:29;24.83;59.59
65985;HTU21D;52748;51.112;5.880;2023-07-24T09:21:55;24.84;59.74
65985;HTU21D;52748;51.112;5.880;2023-07-24T09:24:20;24.86;59.84
65985;HTU21D;52748;51.112;5.880;2023-07-24T09:26:53;24.85;59.99
65985;HTU21D;52748;51.112;5.880;2023-07-24T09:29:19;24.84;60.11
65985;HTU21D;52748;51.112;5.880;2023-07-24T09:31:45;24.84;60.15
65985;HTU21D;52748;51.112;5.880;2023-07-24T09:34:16;24.85;60.18
65985;HTU21D;52748;51.112;5.880;2023-07-24T09:36:42;24.84;60.27
65985;HTU21D;52748;51.112;5.880;2023-07-24T09:39:09;24.85;60.38
65985;HTU21D;52748;51.112;5.880;2023-07-24T09:41:39;24.85;60.41
65985;HTU21D;52748;51.112;5.880;2023-07-24T09:44:06;24.85;60.46
65985;HTU21D;52748;51.112;5.880;2023-07-24T09:46:32;24.85;60.51
65985;HTU21D;52748;51.112;5.880;2023-07-24T09:48:59;24.85;60.57
65985;HTU21D;52748;51.112;5.880;2023-07-24T09:51:29;24.85;60.64
65985;HTU21D;52748;51.112;5.880;2023-07-24T09:54:13;24.86;60.70
65985;HTU21D;52748;51.112;5.880;2023-07-24T09:56:42;24.87;60.73
65985;HTU21D;52748;51.112;5.880;2023-07-24T09:59:09;24.87;60.80
65985;HTU21D;52748;51.112;5.880;2023-07-24T10:01:37;24.86;60.83
65985;HTU21D;52748;51.112;5.880;2023-07-24T10:04:04;24.86;60.86
65985;HTU21D;52748;51.112;5.880;2023-07-24T10:06:31;24.86;60.88
65985;HTU21D;52748;51.112;5.880;2023-07-24T10:08:57;24.86;60.96
65985;HTU21D;52748;51.112;5.880;2023-07-24T10:11:24;24.86;60.96
65985;HTU21D;52748;51.112;5.880;2023-07-24T10:13:52;24.86;61.02
65985;HTU21D;52748;51.112;5.880;2023-07-24T10:16:20;24.85;61.10
65985;HTU21D;52748;51.112;5.880;2023-07-24T10:18:46;24.86;61.24
65985;HTU21D;52748;51.112;5.880;2023-07-24T10:21:13;24.85;61.23
65985;HTU21D;52748;51.112;5.880;2023-07-24T10:23:44;24.86;61.27
65985;HTU21D;52748;51.112;5.880;2023-07-24T10:26:12;24.86;61.31
65985;HTU21D;52748;51.112;5.880;2023-07-24T10:28:47;24.87;61.34
65985;HTU21D;52748;51.112;5.880;2023-07-24T10:31:25;24.86;61.45
65985;HTU21D;52748;51.112;5.880;2023-07-24T10:33:54;24.86;61.45
65985;HTU21D;52748;51.112;5.880;2023-07-24T10:36:22;24.85;61.57
65985;HTU21D;52748;51.112;5.880;2023-07-24T10:38:54;24.85;61.74
65985;HTU21D;52748;51.112;5.880;2023-07-24T10:41:21;24.85;61.89
65985;HTU21D;52748;51.112;5.880;2023-07-24T10:43:49;24.85;62.03
65985;HTU21D;52748;51.112;5.880;2023-07-24T10:46:17;24.85;62.12
65985;HTU21D;52748;51.112;5.880;2023-07-24T10:48:49;24.85;62.23
65985;HTU21D;52748;51.112;5.880;2023-07-24T10:51:16;24.85;62.25
65985;HTU21D;52748;51.112;5.880;2023-07-24T10:53:47;24.85;62.37
65985;HTU21D;52748;51.112;5.880;2023-07-24T10:56:15;24.84;62.47
65985;HTU21D;52748;51.112;5.880;2023-07-24T10:58:41;24.85;62.53
65985;HTU21D;52748;51.112;5.880;2023-07-24T11:01:08;24.85;62.62
65985;HTU21D;52748;51.112;5.880;2023-07-24T11:03:37;24.83;62.77
65985;HTU21D;52748;51.112;5.880;2023-07-24T11:06:04;24.84;62.85
65985;HTU21D;52748;51.112;5.880;2023-07-24T11:08:30;24.83;62.88
65985;HTU21D;52748;51.112;5.880;2023-07-24T11:10:58;24.83;62.92
65985;HTU21D;52748;51.112;5.880;2023-07-24T11:13:25;24.83;63.06
65985;HTU21D;52748;51.112;5.880;2023-07-24T11:15:52;24.83;63.15
65985;HTU21D;52748;51.112;5.880;2023-07-24T11:18:19;24.83;63.28
65985;HTU21D;52748;51.112;5.880;2023-07-24T11:20:52;24.84;63.40
65985;HTU21D;52748;51.112;5.880;2023-07-24T11:23:18;24.85;63.54
65985;HTU21D;52748;51.112;5.880;2023-07-24T11:25:45;24.84;63.69
65985;HTU21D;52748;51.112;5.880;2023-07-24T11:28:13;24.83;63.72
65985;HTU21D;52748;51.112;5.880;2023-07-24T11:30:41;24.84;63.79
65985;HTU21D;52748;51.112;5.880;2023-07-24T11:33:09;24.84;63.92
65985;HTU21D;52748;51.112;5.880;2023-07-24T11:35:36;24.84;64.00
65985;HTU21D;52748;51.112;5.880;2023-07-24T11:38:04;24.85;64.05
65985;HTU21D;52748;51.112;5.880;2023-07-24T11:40:35;24.84;64.11
65985;HTU21D;52748;51.112;5.880;2023-07-24T11:43:03;24.84;64.13
65985;HTU21D;52748;51.112;5.880;2023-07-24T11:45:42;24.85;64.17
65985;HTU21D;52748;51.112;5.880;2023-07-24T11:48:11;24.84;64.21
65985;HTU21D;52748;51.112;5.880;2023-07-24T11:50:49;24.85;64.26
65985;HTU21D;52748;51.112;5.880;2023-07-24T11:53:20;24.84;64.35
65985;HTU21D;52748;51.112;5.880;2023-07-24T11:55:48;24.84;64.44
65985;HTU21D;52748;51.112;5.880;2023-07-24T11:58:15;24.85;64.47
65985;HTU21D;52748;51.112;5.880;2023-07-24T12:00:42;24.84;64.59
65985;HTU21D;52748;51.112;5.880;2023-07-24T12:03:08;24.84;64.66
65985;HTU21D;52748;51.112;5.880;2023-07-24T12:05:38;24.84;64.61
65985;HTU21D;52748;51.112;5.880;2023-07-24T12:08:05;24.84;64.63
65985;HTU21D;52748;51.112;5.880;2023-07-24T12:10:31;24.86;64.67
65985;HTU21D;52748;51.112;5.880;2023-07-24T12:12:59;24.84;64.74
65985;HTU21D;52748;51.112;5.880;2023-07-24T12:15:28;24.85;64.83
65985;HTU21D;52748;51.112;5.880;2023-07-24T12:17:54;24.85;64.92
65985;HTU21D;52748;51.112;5.880;2023-07-24T12:20:20;24.84;64.85
65985;HTU21D;52748;51.112;5.880;2023-07-24T12:22:46;24.86;64.94
65985;HTU21D;52748;51.112;5.880;2023-07-24T12:25:12;24.86;65.04
65985;HTU21D;52748;51.112;5.880;2023-07-24T12:27:39;24.85;65.11
65985;HTU21D;52748;51.112;5.880;2023-07-24T12:30:07;24.87;65.08
65985;HTU21D;52748;51.112;5.880;2023-07-24T12:32:33;24.84;65.12
65985;HTU21D;52748;51.112;5.880;2023-07-24T12:34:59;24.85;65.23
65985;HTU21D;52748;51.112;5.880;2023-07-24T12:37:25;24.85;65.36
65985;HTU21D;52748;51.112;5.880;2023-07-24T12:39:51;24.84;65.46
65985;HTU21D;52748;51.112;5.880;2023-07-24T12:42:17;24.84;65.53
65985;HTU21D;52748;51.112;5.880;2023-07-24T12:44:43;24.85;65.59
65985;HTU21D;52748;51.112;5.880;2023-07-24T12:47:11;24.84;65.73
65985;HTU21D;52748;51.112;5.880;2023-07-24T12:49:37;24.84;65.74
65985;HTU21D;52748;51.112;5.880;2023-07-24T12:52:04;24.85;65.75
65985;HTU21D;52748;51.112;5.880;2023-07-24T12:54:31;24.85;65.78
65985;HTU21D;52748;51.112;5.880;2023-07-24T12:56:57;24.85;65.91
65985;HTU21D;52748;51.112;5.880;2023-07-24T12:59:23;24.84;66.07
65985;HTU21D;52748;51.112;5.880;2023-07-24T13:01:49;24.85;66.20
65985;HTU21D;52748;51.112;5.880;2023-07-24T13:04:15;24.85;66.29
65985;HTU21D;52748;51.112;5.880;2023-07-24T13:06:41;24.85;66.34
65985;HTU21D;52748;51.112;5.880;2023-07-24T13:09:07;24.85;66.38
65985;HTU21D;52748;51.112;5.880;2023-07-24T13:11:33;24.85;66.40
65985;HTU21D;52748;51.112;5.880;2023-07-24T13:13:58;24.85;66.40
65985;HTU21D;52748;51.112;5.880;2023-07-24T13:16:24;24.85;66.47
65985;HTU21D;52748;51.112;5.880;2023-07-24T13:18:50;24.84;66.49
65985;HTU21D;52748;51.112;5.880;2023-07-24T13:21:16;24.86;66.53
65985;HTU21D;52748;51.112;5.880;2023-07-24T13:23:42;24.86;66.49
65985;HTU21D;52748;51.112;5.880;2023-07-24T13:26:08;24.85;66.45
65985;HTU21D;52748;51.112;5.880;2023-07-24T13:28:39;24.87;66.39
65985;HTU21D;52748;51.112;5.880;2023-07-24T13:31:17;24.85;66.30
65985;HTU21D;52748;51.112;5.880;2023-07-24T13:33:43;24.86;66.23
65985;HTU21D;52748;51.112;5.880;2023-07-24T13:36:09;24.86;66.15
65985;HTU21D;52748;51.112;5.880;2023-07-24T13:38:35;24.86;66.07
65985;HTU21D;52748;51.112;5.880;2023-07-24T13:41:02;24.86;66.00
65985;HTU21D;52748;51.112;5.880;2023-07-24T13:43:29;24.86;65.92
65985;HTU21D;52748;51.112;5.880;2023-07-24T13:45:55;24.86;65.82
65985;HTU21D;52748;51.112;5.880;2023-07-24T13:48:21;24.86;65.79
65985;HTU21D;52748;51.112;5.880;2023-07-24T13:50:47;24.85;65.69
65985;HTU21D;52748;51.112;5.880;2023-07-24T13:53:13;24.85;65.59
65985;HTU21D;52748;51.112;5.880;2023-07-24T13:55:38;24.85;65.59
65985;HTU21D;52748;51.112;5.880;2023-07-24T13:58:04;24.86;65.59
65985;HTU21D;52748;51.112;5.880;2023-07-24T14:00:30;24.86;65.56
65985;HTU21D;52748;51.112;5.880;2023-07-24T14:02:56;24.86;65.50
65985;HTU21D;52748;51.112;5.880;2023-07-24T14:05:22;24.85;65.38
65985;HTU21D;52748;51.112;5.880;2023-07-24T14:07:47;24.86;65.39
65985;HTU21D;52748;51.112;5.880;2023-07-24T14:10:13;24.86;65.38
65985;HTU21D;52748;51.112;5.880;2023-07-24T14:12:39;24.87;65.37
65985;HTU21D;52748;51.112;5.880;2023-07-24T14:15:05;24.85;65.37
65985;HTU21D;52748;51.112;5.880;2023-07-24T14:17:31;24.85;65.27
65985;HTU21D;52748;51.112;5.880;2023-07-24T14:19:57;24.86;65.24
65985;HTU21D;52748;51.112;5.880;2023-07-24T14:22:23;24.86;65.25
65985;HTU21D;52748;51.112;5.880;2023-07-24T14:24:48;24.86;65.21
65985;HTU21D;52748;51.112;5.880;2023-07-24T14:27:14;24.86;65.24
65985;HTU21D;52748;51.112;5.880;2023-07-24T14:29:40;24.86;65.13
65985;HTU21D;52748;51.112;5.880;2023-07-24T14:32:06;24.85;65.15
65985;HTU21D;52748;51.112;5.880;2023-07-24T14:34:33;24.87;65.21
65985;HTU21D;52748;51.112;5.880;2023-07-24T14:36:59;24.86;65.16
65985;HTU21D;52748;51.112;5.880;2023-07-24T14:39:25;24.85;65.13
65985;HTU21D;52748;51.112;5.880;2023-07-24T14:41:51;24.87;65.14
65985;HTU21D;52748;51.112;5.880;2023-07-24T14:44:17;24.86;65.14
65985;HTU21D;52748;51.112;5.880;2023-07-24T14:46:43;24.85;65.15
65985;HTU21D;52748;51.112;5.880;2023-07-24T14:49:08;24.86;65.11
65985;HTU21D;52748;51.112;5.880;2023-07-24T14:51:34;24.87;65.08
65985;HTU21D;52748;51.112;5.880;2023-07-24T14:54:00;24.86;65.10
65985;HTU21D;52748;51.112;5.880;2023-07-24T14:56:26;24.85;65.04
65985;HTU21D;52748;51.112;5.880;2023-07-24T14:58:52;24.87;64.92
65985;HTU21D;52748;51.112;5.880;2023-07-24T15:01:18;24.86;64.90
65985;HTU21D;52748;51.112;5.880;2023-07-24T15:03:44;24.86;64.88
65985;HTU21D;52748;51.112;5.880;2023-07-24T15:06:10;24.86;64.89
65985;HTU21D;52748;51.112;5.880;2023-07-24T15:08:35;24.87;64.87
65985;HTU21D;52748;51.112;5.880;2023-07-24T15:11:01;24.87;64.83
65985;HTU21D;52748;51.112;5.880;2023-07-24T15:13:27;24.86;64.83
65985;HTU21D;52748;51.112;5.880;2023-07-24T15:15:53;24.87;64.74